<?xml version="1.0" encoding="UTF-8" standalone="no" ?>
<gpx xmlns="http://www.topografix.com/GPX/1/1" xmlns:xsi="http://www.w3.org/2001/XMLSchema-instance" xsi:schemaLocation="http://www.topografix.com/GPX/1/1 http://www.topografix.com/GPX/1/1/gpx.xsd" version="1.1" creator="VisuGPX - https://www.visugpx.com">
  <metadata>
    <name>Gerberoy. Fête des roses</name>
    <desc><![CDATA[Senantes, Hanvoile, Gerberoy. 
Fête des roses.]]></desc>
  </metadata>
  <trk>
    <name><![CDATA[8465630-Gerberoy]]></name>
    <trkseg>
      <trkpt lat="49.48619" lon="1.83573">
        <ele>181</ele>
        <time>2018-04-21T10:06:53Z</time>
      </trkpt>
      <trkpt lat="49.48619" lon="1.83549">
        <ele>182</ele>
        <time>2018-04-21T10:07:53Z</time>
      </trkpt>
      <trkpt lat="49.48585" lon="1.83568">
        <ele>182</ele>
        <time>2018-04-21T10:08:53Z</time>
      </trkpt>
      <trkpt lat="49.48566" lon="1.83583">
        <ele>181</ele>
        <time>2018-04-21T10:09:53Z</time>
      </trkpt>
      <trkpt lat="49.48494" lon="1.8359">
        <ele>179</ele>
        <time>2018-04-21T10:10:53Z</time>
      </trkpt>
      <trkpt lat="49.48481" lon="1.83583">
        <ele>179</ele>
        <time>2018-04-21T10:11:53Z</time>
      </trkpt>
      <trkpt lat="49.48445" lon="1.83658">
        <ele>180</ele>
        <time>2018-04-21T10:12:53Z</time>
      </trkpt>
      <trkpt lat="49.48424" lon="1.83713">
        <ele>180</ele>
        <time>2018-04-21T10:13:53Z</time>
      </trkpt>
      <trkpt lat="49.48385" lon="1.83775">
        <ele>180</ele>
        <time>2018-04-21T10:14:53Z</time>
      </trkpt>
      <trkpt lat="49.48361" lon="1.83817">
        <ele>181</ele>
        <time>2018-04-21T10:15:53Z</time>
      </trkpt>
      <trkpt lat="49.48295" lon="1.84008">
        <ele>177</ele>
        <time>2018-04-21T10:16:53Z</time>
      </trkpt>
      <trkpt lat="49.48273" lon="1.84026">
        <ele>178</ele>
        <time>2018-04-21T10:17:53Z</time>
      </trkpt>
      <trkpt lat="49.48235" lon="1.84064">
        <ele>180</ele>
        <time>2018-04-21T10:18:53Z</time>
      </trkpt>
      <trkpt lat="49.48211" lon="1.84098">
        <ele>180</ele>
        <time>2018-04-21T10:19:53Z</time>
      </trkpt>
      <trkpt lat="49.48163" lon="1.84148">
        <ele>181</ele>
        <time>2018-04-21T10:20:53Z</time>
      </trkpt>
      <trkpt lat="49.48074" lon="1.84374">
        <ele>177</ele>
        <time>2018-04-21T10:21:53Z</time>
      </trkpt>
      <trkpt lat="49.47988" lon="1.84491">
        <ele>172</ele>
        <time>2018-04-21T10:22:53Z</time>
      </trkpt>
      <trkpt lat="49.47935" lon="1.84549">
        <ele>168</ele>
        <time>2018-04-21T10:23:53Z</time>
      </trkpt>
      <trkpt lat="49.47837" lon="1.84665">
        <ele>165</ele>
        <time>2018-04-21T10:24:53Z</time>
      </trkpt>
      <trkpt lat="49.4797" lon="1.84797">
        <ele>170</ele>
        <time>2018-04-21T10:25:53Z</time>
      </trkpt>
      <trkpt lat="49.48071" lon="1.84837">
        <ele>169</ele>
        <time>2018-04-21T10:26:53Z</time>
      </trkpt>
      <trkpt lat="49.48032" lon="1.85001">
        <ele>163</ele>
        <time>2018-04-21T10:27:53Z</time>
      </trkpt>
      <trkpt lat="49.48009" lon="1.85089">
        <ele>161</ele>
        <time>2018-04-21T10:28:53Z</time>
      </trkpt>
      <trkpt lat="49.47989" lon="1.85166">
        <ele>159</ele>
        <time>2018-04-21T10:29:53Z</time>
      </trkpt>
      <trkpt lat="49.47958" lon="1.85283">
        <ele>157</ele>
        <time>2018-04-21T10:30:53Z</time>
      </trkpt>
      <trkpt lat="49.47932" lon="1.85372">
        <ele>154</ele>
        <time>2018-04-21T10:31:53Z</time>
      </trkpt>
      <trkpt lat="49.47894" lon="1.85446">
        <ele>152</ele>
        <time>2018-04-21T10:32:53Z</time>
      </trkpt>
      <trkpt lat="49.47843" lon="1.85542">
        <ele>147</ele>
        <time>2018-04-21T10:33:53Z</time>
      </trkpt>
      <trkpt lat="49.4779" lon="1.85638">
        <ele>144</ele>
        <time>2018-04-21T10:34:53Z</time>
      </trkpt>
      <trkpt lat="49.47823" lon="1.85668">
        <ele>138</ele>
        <time>2018-04-21T10:35:53Z</time>
      </trkpt>
      <trkpt lat="49.47859" lon="1.85726">
        <ele>132</ele>
        <time>2018-04-21T10:36:53Z</time>
      </trkpt>
      <trkpt lat="49.47873" lon="1.85747">
        <ele>129</ele>
        <time>2018-04-21T10:37:53Z</time>
      </trkpt>
      <trkpt lat="49.47879" lon="1.85837">
        <ele>127</ele>
        <time>2018-04-21T10:38:53Z</time>
      </trkpt>
      <trkpt lat="49.47881" lon="1.85912">
        <ele>127</ele>
        <time>2018-04-21T10:39:53Z</time>
      </trkpt>
      <trkpt lat="49.47888" lon="1.85929">
        <ele>127</ele>
        <time>2018-04-21T10:40:53Z</time>
      </trkpt>
      <trkpt lat="49.47911" lon="1.85926">
        <ele>127</ele>
        <time>2018-04-21T10:41:53Z</time>
      </trkpt>
      <trkpt lat="49.47933" lon="1.85947">
        <ele>129</ele>
        <time>2018-04-21T10:42:53Z</time>
      </trkpt>
      <trkpt lat="49.47966" lon="1.85997">
        <ele>132</ele>
        <time>2018-04-21T10:43:53Z</time>
      </trkpt>
      <trkpt lat="49.4798" lon="1.86019">
        <ele>133</ele>
        <time>2018-04-21T10:44:53Z</time>
      </trkpt>
      <trkpt lat="49.48006" lon="1.86048">
        <ele>135</ele>
        <time>2018-04-21T10:45:53Z</time>
      </trkpt>
      <trkpt lat="49.48035" lon="1.86069">
        <ele>137</ele>
        <time>2018-04-21T10:46:53Z</time>
      </trkpt>
      <trkpt lat="49.48069" lon="1.86088">
        <ele>139</ele>
        <time>2018-04-21T10:47:53Z</time>
      </trkpt>
      <trkpt lat="49.48105" lon="1.86103">
        <ele>142</ele>
        <time>2018-04-21T10:48:53Z</time>
      </trkpt>
      <trkpt lat="49.48152" lon="1.86128">
        <ele>146</ele>
        <time>2018-04-21T10:49:53Z</time>
      </trkpt>
      <trkpt lat="49.48189" lon="1.86158">
        <ele>149</ele>
        <time>2018-04-21T10:50:53Z</time>
      </trkpt>
      <trkpt lat="49.48222" lon="1.86184">
        <ele>151</ele>
        <time>2018-04-21T10:51:53Z</time>
      </trkpt>
      <trkpt lat="49.48256" lon="1.86212">
        <ele>153</ele>
        <time>2018-04-21T10:52:53Z</time>
      </trkpt>
      <trkpt lat="49.48289" lon="1.86245">
        <ele>156</ele>
        <time>2018-04-21T10:53:53Z</time>
      </trkpt>
      <trkpt lat="49.48322" lon="1.86275">
        <ele>158</ele>
        <time>2018-04-21T10:54:53Z</time>
      </trkpt>
      <trkpt lat="49.48364" lon="1.86314">
        <ele>160</ele>
        <time>2018-04-21T10:55:53Z</time>
      </trkpt>
      <trkpt lat="49.48397" lon="1.86344">
        <ele>162</ele>
        <time>2018-04-21T10:56:53Z</time>
      </trkpt>
      <trkpt lat="49.48429" lon="1.86376">
        <ele>164</ele>
        <time>2018-04-21T10:57:53Z</time>
      </trkpt>
      <trkpt lat="49.48476" lon="1.86421">
        <ele>166</ele>
        <time>2018-04-21T10:58:53Z</time>
      </trkpt>
      <trkpt lat="49.48516" lon="1.86464">
        <ele>168</ele>
        <time>2018-04-21T10:59:53Z</time>
      </trkpt>
      <trkpt lat="49.48552" lon="1.86491">
        <ele>169</ele>
        <time>2018-04-21T11:00:53Z</time>
      </trkpt>
      <trkpt lat="49.48599" lon="1.86532">
        <ele>172</ele>
        <time>2018-04-21T11:01:53Z</time>
      </trkpt>
      <trkpt lat="49.48643" lon="1.86574">
        <ele>174</ele>
        <time>2018-04-21T11:02:53Z</time>
      </trkpt>
      <trkpt lat="49.48689" lon="1.86615">
        <ele>176</ele>
        <time>2018-04-21T11:03:53Z</time>
      </trkpt>
      <trkpt lat="49.48726" lon="1.86646">
        <ele>177</ele>
        <time>2018-04-21T11:04:53Z</time>
      </trkpt>
      <trkpt lat="49.4877" lon="1.8668">
        <ele>179</ele>
        <time>2018-04-21T11:05:53Z</time>
      </trkpt>
      <trkpt lat="49.48812" lon="1.86706">
        <ele>182</ele>
        <time>2018-04-21T11:06:53Z</time>
      </trkpt>
      <trkpt lat="49.48861" lon="1.86742">
        <ele>183</ele>
        <time>2018-04-21T11:07:53Z</time>
      </trkpt>
      <trkpt lat="49.48893" lon="1.86772">
        <ele>183</ele>
        <time>2018-04-21T11:08:53Z</time>
      </trkpt>
      <trkpt lat="49.48938" lon="1.86822">
        <ele>184</ele>
        <time>2018-04-21T11:09:53Z</time>
      </trkpt>
      <trkpt lat="49.48977" lon="1.86873">
        <ele>184</ele>
        <time>2018-04-21T11:10:53Z</time>
      </trkpt>
      <trkpt lat="49.49008" lon="1.86935">
        <ele>186</ele>
        <time>2018-04-21T11:11:53Z</time>
      </trkpt>
      <trkpt lat="49.49032" lon="1.86989">
        <ele>186</ele>
        <time>2018-04-21T11:12:53Z</time>
      </trkpt>
      <trkpt lat="49.49065" lon="1.87026">
        <ele>187</ele>
        <time>2018-04-21T11:13:53Z</time>
      </trkpt>
      <trkpt lat="49.49086" lon="1.87061">
        <ele>187</ele>
        <time>2018-04-21T11:14:53Z</time>
      </trkpt>
      <trkpt lat="49.49084" lon="1.87073">
        <ele>187</ele>
        <time>2018-04-21T11:15:53Z</time>
      </trkpt>
      <trkpt lat="49.49054" lon="1.87122">
        <ele>185</ele>
        <time>2018-04-21T11:16:53Z</time>
      </trkpt>
      <trkpt lat="49.49029" lon="1.87197">
        <ele>183</ele>
        <time>2018-04-21T11:17:53Z</time>
      </trkpt>
      <trkpt lat="49.49027" lon="1.87256">
        <ele>182</ele>
        <time>2018-04-21T11:18:53Z</time>
      </trkpt>
      <trkpt lat="49.49034" lon="1.87313">
        <ele>182</ele>
        <time>2018-04-21T11:19:53Z</time>
      </trkpt>
      <trkpt lat="49.49037" lon="1.87362">
        <ele>182</ele>
        <time>2018-04-21T11:20:53Z</time>
      </trkpt>
      <trkpt lat="49.49047" lon="1.87421">
        <ele>182</ele>
        <time>2018-04-21T11:21:53Z</time>
      </trkpt>
      <trkpt lat="49.49078" lon="1.87522">
        <ele>185</ele>
        <time>2018-04-21T11:22:53Z</time>
      </trkpt>
      <trkpt lat="49.49099" lon="1.87584">
        <ele>186</ele>
        <time>2018-04-21T11:23:53Z</time>
      </trkpt>
      <trkpt lat="49.49118" lon="1.87646">
        <ele>189</ele>
        <time>2018-04-21T11:24:53Z</time>
      </trkpt>
      <trkpt lat="49.49124" lon="1.87722">
        <ele>190</ele>
        <time>2018-04-21T11:25:53Z</time>
      </trkpt>
      <trkpt lat="49.49146" lon="1.87882">
        <ele>193</ele>
        <time>2018-04-21T11:26:53Z</time>
      </trkpt>
      <trkpt lat="49.49228" lon="1.87932">
        <ele>199</ele>
        <time>2018-04-21T11:27:53Z</time>
      </trkpt>
      <trkpt lat="49.49314" lon="1.87992">
        <ele>205</ele>
        <time>2018-04-21T11:28:53Z</time>
      </trkpt>
      <trkpt lat="49.49365" lon="1.88025">
        <ele>206</ele>
        <time>2018-04-21T11:29:53Z</time>
      </trkpt>
      <trkpt lat="49.49362" lon="1.88186">
        <ele>204</ele>
        <time>2018-04-21T11:30:53Z</time>
      </trkpt>
      <trkpt lat="49.49361" lon="1.88292">
        <ele>203</ele>
        <time>2018-04-21T11:31:53Z</time>
      </trkpt>
      <trkpt lat="49.49355" lon="1.88363">
        <ele>204</ele>
        <time>2018-04-21T11:32:53Z</time>
      </trkpt>
      <trkpt lat="49.49343" lon="1.88385">
        <ele>204</ele>
        <time>2018-04-21T11:33:53Z</time>
      </trkpt>
      <trkpt lat="49.49369" lon="1.88444">
        <ele>204</ele>
        <time>2018-04-21T11:34:53Z</time>
      </trkpt>
      <trkpt lat="49.49425" lon="1.88554">
        <ele>204</ele>
        <time>2018-04-21T11:35:53Z</time>
      </trkpt>
      <trkpt lat="49.49474" lon="1.88645">
        <ele>203</ele>
        <time>2018-04-21T11:36:53Z</time>
      </trkpt>
      <trkpt lat="49.49529" lon="1.88757">
        <ele>202</ele>
        <time>2018-04-21T11:37:53Z</time>
      </trkpt>
      <trkpt lat="49.49566" lon="1.88834">
        <ele>200</ele>
        <time>2018-04-21T11:38:53Z</time>
      </trkpt>
      <trkpt lat="49.49613" lon="1.88805">
        <ele>199</ele>
        <time>2018-04-21T11:39:53Z</time>
      </trkpt>
      <trkpt lat="49.49673" lon="1.88766">
        <ele>196</ele>
        <time>2018-04-21T11:40:53Z</time>
      </trkpt>
      <trkpt lat="49.49689" lon="1.88754">
        <ele>195</ele>
        <time>2018-04-21T11:41:53Z</time>
      </trkpt>
      <trkpt lat="49.49752" lon="1.88701">
        <ele>192</ele>
        <time>2018-04-21T11:42:53Z</time>
      </trkpt>
      <trkpt lat="49.498" lon="1.88645">
        <ele>189</ele>
        <time>2018-04-21T11:43:53Z</time>
      </trkpt>
      <trkpt lat="49.49864" lon="1.88621">
        <ele>184</ele>
        <time>2018-04-21T11:44:53Z</time>
      </trkpt>
      <trkpt lat="49.49913" lon="1.88644">
        <ele>181</ele>
        <time>2018-04-21T11:45:53Z</time>
      </trkpt>
      <trkpt lat="49.49975" lon="1.88625">
        <ele>176</ele>
        <time>2018-04-21T11:46:53Z</time>
      </trkpt>
      <trkpt lat="49.50067" lon="1.88595">
        <ele>171</ele>
        <time>2018-04-21T11:47:53Z</time>
      </trkpt>
      <trkpt lat="49.50111" lon="1.88593">
        <ele>169</ele>
        <time>2018-04-21T11:48:53Z</time>
      </trkpt>
      <trkpt lat="49.50148" lon="1.88591">
        <ele>167</ele>
        <time>2018-04-21T11:49:53Z</time>
      </trkpt>
      <trkpt lat="49.5021" lon="1.88616">
        <ele>165</ele>
        <time>2018-04-21T11:50:53Z</time>
      </trkpt>
      <trkpt lat="49.50247" lon="1.8863">
        <ele>164</ele>
        <time>2018-04-21T11:51:53Z</time>
      </trkpt>
      <trkpt lat="49.5032" lon="1.88641">
        <ele>163</ele>
        <time>2018-04-21T11:52:53Z</time>
      </trkpt>
      <trkpt lat="49.50377" lon="1.88638">
        <ele>165</ele>
        <time>2018-04-21T11:53:53Z</time>
      </trkpt>
      <trkpt lat="49.50415" lon="1.88627">
        <ele>167</ele>
        <time>2018-04-21T11:54:53Z</time>
      </trkpt>
      <trkpt lat="49.504" lon="1.88579">
        <ele>168</ele>
        <time>2018-04-21T11:55:53Z</time>
      </trkpt>
      <trkpt lat="49.50384" lon="1.88541">
        <ele>168</ele>
        <time>2018-04-21T11:56:53Z</time>
      </trkpt>
      <trkpt lat="49.50344" lon="1.88477">
        <ele>169</ele>
        <time>2018-04-21T11:57:53Z</time>
      </trkpt>
      <trkpt lat="49.50281" lon="1.88382">
        <ele>171</ele>
        <time>2018-04-21T11:58:53Z</time>
      </trkpt>
      <trkpt lat="49.50316" lon="1.88264">
        <ele>174</ele>
        <time>2018-04-21T11:59:53Z</time>
      </trkpt>
      <trkpt lat="49.5039" lon="1.88112">
        <ele>177</ele>
        <time>2018-04-21T12:00:53Z</time>
      </trkpt>
      <trkpt lat="49.50459" lon="1.87975">
        <ele>177</ele>
        <time>2018-04-21T12:01:53Z</time>
      </trkpt>
      <trkpt lat="49.50544" lon="1.87911">
        <ele>172</ele>
        <time>2018-04-21T12:02:53Z</time>
      </trkpt>
      <trkpt lat="49.50661" lon="1.87804">
        <ele>163</ele>
        <time>2018-04-21T12:03:53Z</time>
      </trkpt>
      <trkpt lat="49.50786" lon="1.87692">
        <ele>149</ele>
        <time>2018-04-21T12:04:53Z</time>
      </trkpt>
      <trkpt lat="49.50844" lon="1.87645">
        <ele>144</ele>
        <time>2018-04-21T12:05:53Z</time>
      </trkpt>
      <trkpt lat="49.50857" lon="1.87671">
        <ele>143</ele>
        <time>2018-04-21T12:06:53Z</time>
      </trkpt>
      <trkpt lat="49.50885" lon="1.87751">
        <ele>140</ele>
        <time>2018-04-21T12:07:53Z</time>
      </trkpt>
      <trkpt lat="49.50907" lon="1.87808">
        <ele>135</ele>
        <time>2018-04-21T12:08:53Z</time>
      </trkpt>
      <trkpt lat="49.50936" lon="1.87892">
        <ele>133</ele>
        <time>2018-04-21T12:09:53Z</time>
      </trkpt>
      <trkpt lat="49.50947" lon="1.87946">
        <ele>135</ele>
        <time>2018-04-21T12:10:53Z</time>
      </trkpt>
      <trkpt lat="49.50949" lon="1.87998">
        <ele>137</ele>
        <time>2018-04-21T12:11:53Z</time>
      </trkpt>
      <trkpt lat="49.50982" lon="1.88033">
        <ele>138</ele>
        <time>2018-04-21T12:12:53Z</time>
      </trkpt>
      <trkpt lat="49.51032" lon="1.88074">
        <ele>137</ele>
        <time>2018-04-21T12:13:53Z</time>
      </trkpt>
      <trkpt lat="49.51055" lon="1.88098">
        <ele>137</ele>
        <time>2018-04-21T12:14:53Z</time>
      </trkpt>
      <trkpt lat="49.51065" lon="1.88135">
        <ele>138</ele>
        <time>2018-04-21T12:15:53Z</time>
      </trkpt>
      <trkpt lat="49.51112" lon="1.88094">
        <ele>133</ele>
        <time>2018-04-21T12:16:53Z</time>
      </trkpt>
      <trkpt lat="49.51156" lon="1.88032">
        <ele>129</ele>
        <time>2018-04-21T12:17:53Z</time>
      </trkpt>
      <trkpt lat="49.51226" lon="1.87971">
        <ele>126</ele>
        <time>2018-04-21T12:18:53Z</time>
      </trkpt>
      <trkpt lat="49.51279" lon="1.87899">
        <ele>124</ele>
        <time>2018-04-21T12:19:53Z</time>
      </trkpt>
      <trkpt lat="49.51303" lon="1.87838">
        <ele>124</ele>
        <time>2018-04-21T12:20:53Z</time>
      </trkpt>
      <trkpt lat="49.51312" lon="1.87773">
        <ele>126</ele>
        <time>2018-04-21T12:21:53Z</time>
      </trkpt>
      <trkpt lat="49.51303" lon="1.8771">
        <ele>127</ele>
        <time>2018-04-21T12:22:53Z</time>
      </trkpt>
      <trkpt lat="49.51314" lon="1.87665">
        <ele>129</ele>
        <time>2018-04-21T12:23:53Z</time>
      </trkpt>
      <trkpt lat="49.51331" lon="1.87641">
        <ele>131</ele>
        <time>2018-04-21T12:24:53Z</time>
      </trkpt>
      <trkpt lat="49.51354" lon="1.87668">
        <ele>130</ele>
        <time>2018-04-21T12:25:53Z</time>
      </trkpt>
      <trkpt lat="49.5138" lon="1.87708">
        <ele>130</ele>
        <time>2018-04-21T12:26:53Z</time>
      </trkpt>
      <trkpt lat="49.51403" lon="1.87767">
        <ele>129</ele>
        <time>2018-04-21T12:27:53Z</time>
      </trkpt>
      <trkpt lat="49.51432" lon="1.87809">
        <ele>129</ele>
        <time>2018-04-21T12:28:53Z</time>
      </trkpt>
      <trkpt lat="49.51499" lon="1.8788">
        <ele>128</ele>
        <time>2018-04-21T12:29:53Z</time>
      </trkpt>
      <trkpt lat="49.51537" lon="1.87926">
        <ele>131</ele>
        <time>2018-04-21T12:30:53Z</time>
      </trkpt>
      <trkpt lat="49.51574" lon="1.87941">
        <ele>135</ele>
        <time>2018-04-21T12:31:53Z</time>
      </trkpt>
      <trkpt lat="49.51599" lon="1.8797">
        <ele>140</ele>
        <time>2018-04-21T12:32:53Z</time>
      </trkpt>
      <trkpt lat="49.51639" lon="1.87949">
        <ele>146</ele>
        <time>2018-04-21T12:33:53Z</time>
      </trkpt>
      <trkpt lat="49.51672" lon="1.8794">
        <ele>152</ele>
        <time>2018-04-21T12:34:53Z</time>
      </trkpt>
      <trkpt lat="49.51723" lon="1.87957">
        <ele>158</ele>
        <time>2018-04-21T12:35:53Z</time>
      </trkpt>
      <trkpt lat="49.51762" lon="1.87953">
        <ele>162</ele>
        <time>2018-04-21T12:36:53Z</time>
      </trkpt>
      <trkpt lat="49.51774" lon="1.87897">
        <ele>163</ele>
        <time>2018-04-21T12:37:53Z</time>
      </trkpt>
      <trkpt lat="49.51855" lon="1.87621">
        <ele>166</ele>
        <time>2018-04-21T12:38:53Z</time>
      </trkpt>
      <trkpt lat="49.5193" lon="1.87366">
        <ele>170</ele>
        <time>2018-04-21T12:39:53Z</time>
      </trkpt>
      <trkpt lat="49.51945" lon="1.87377">
        <ele>171</ele>
        <time>2018-04-21T12:40:53Z</time>
      </trkpt>
      <trkpt lat="49.51997" lon="1.87353">
        <ele>175</ele>
        <time>2018-04-21T12:41:53Z</time>
      </trkpt>
      <trkpt lat="49.5208" lon="1.87281">
        <ele>177</ele>
        <time>2018-04-21T12:42:53Z</time>
      </trkpt>
      <trkpt lat="49.52109" lon="1.87262">
        <ele>178</ele>
        <time>2018-04-21T12:43:53Z</time>
      </trkpt>
      <trkpt lat="49.52192" lon="1.87236">
        <ele>177</ele>
        <time>2018-04-21T12:44:53Z</time>
      </trkpt>
      <trkpt lat="49.52238" lon="1.87228">
        <ele>176</ele>
        <time>2018-04-21T12:45:53Z</time>
      </trkpt>
      <trkpt lat="49.52275" lon="1.87234">
        <ele>174</ele>
        <time>2018-04-21T12:46:53Z</time>
      </trkpt>
      <trkpt lat="49.52319" lon="1.87247">
        <ele>172</ele>
        <time>2018-04-21T12:47:53Z</time>
      </trkpt>
      <trkpt lat="49.52358" lon="1.87265">
        <ele>168</ele>
        <time>2018-04-21T12:48:53Z</time>
      </trkpt>
      <trkpt lat="49.52405" lon="1.87281">
        <ele>164</ele>
        <time>2018-04-21T12:49:53Z</time>
      </trkpt>
      <trkpt lat="49.52444" lon="1.87307">
        <ele>160</ele>
        <time>2018-04-21T12:50:53Z</time>
      </trkpt>
      <trkpt lat="49.52503" lon="1.87358">
        <ele>155</ele>
        <time>2018-04-21T12:51:53Z</time>
      </trkpt>
      <trkpt lat="49.52567" lon="1.87414">
        <ele>152</ele>
        <time>2018-04-21T12:52:53Z</time>
      </trkpt>
      <trkpt lat="49.52631" lon="1.87458">
        <ele>150</ele>
        <time>2018-04-21T12:53:53Z</time>
      </trkpt>
      <trkpt lat="49.52693" lon="1.87472">
        <ele>147</ele>
        <time>2018-04-21T12:54:53Z</time>
      </trkpt>
      <trkpt lat="49.52789" lon="1.87492">
        <ele>140</ele>
        <time>2018-04-21T12:55:53Z</time>
      </trkpt>
      <trkpt lat="49.52824" lon="1.87501">
        <ele>138</ele>
        <time>2018-04-21T12:56:53Z</time>
      </trkpt>
      <trkpt lat="49.52854" lon="1.8752">
        <ele>135</ele>
        <time>2018-04-21T12:57:53Z</time>
      </trkpt>
      <trkpt lat="49.5289" lon="1.87553">
        <ele>131</ele>
        <time>2018-04-21T12:58:53Z</time>
      </trkpt>
      <trkpt lat="49.52924" lon="1.87597">
        <ele>129</ele>
        <time>2018-04-21T12:59:53Z</time>
      </trkpt>
      <trkpt lat="49.52965" lon="1.87652">
        <ele>123</ele>
        <time>2018-04-21T13:00:53Z</time>
      </trkpt>
      <trkpt lat="49.52981" lon="1.87676">
        <ele>120</ele>
        <time>2018-04-21T13:01:53Z</time>
      </trkpt>
      <trkpt lat="49.52986" lon="1.87715">
        <ele>117</ele>
        <time>2018-04-21T13:02:53Z</time>
      </trkpt>
      <trkpt lat="49.52984" lon="1.87768">
        <ele>114</ele>
        <time>2018-04-21T13:03:53Z</time>
      </trkpt>
      <trkpt lat="49.52981" lon="1.87806">
        <ele>112</ele>
        <time>2018-04-21T13:04:53Z</time>
      </trkpt>
      <trkpt lat="49.52972" lon="1.87865">
        <ele>109</ele>
        <time>2018-04-21T13:05:53Z</time>
      </trkpt>
      <trkpt lat="49.52959" lon="1.87925">
        <ele>107</ele>
        <time>2018-04-21T13:06:53Z</time>
      </trkpt>
      <trkpt lat="49.52944" lon="1.87973">
        <ele>106</ele>
        <time>2018-04-21T13:07:53Z</time>
      </trkpt>
      <trkpt lat="49.52964" lon="1.87953">
        <ele>106</ele>
        <time>2018-04-21T13:08:53Z</time>
      </trkpt>
      <trkpt lat="49.52984" lon="1.87907">
        <ele>107</ele>
        <time>2018-04-21T13:09:53Z</time>
      </trkpt>
      <trkpt lat="49.53018" lon="1.87826">
        <ele>108</ele>
        <time>2018-04-21T13:10:53Z</time>
      </trkpt>
      <trkpt lat="49.5306" lon="1.87748">
        <ele>108</ele>
        <time>2018-04-21T13:11:53Z</time>
      </trkpt>
      <trkpt lat="49.53081" lon="1.87698">
        <ele>107</ele>
        <time>2018-04-21T13:12:53Z</time>
      </trkpt>
      <trkpt lat="49.53121" lon="1.8759">
        <ele>109</ele>
        <time>2018-04-21T13:13:53Z</time>
      </trkpt>
      <trkpt lat="49.53157" lon="1.87493">
        <ele>113</ele>
        <time>2018-04-21T13:14:53Z</time>
      </trkpt>
      <trkpt lat="49.53205" lon="1.8739">
        <ele>114</ele>
        <time>2018-04-21T13:15:53Z</time>
      </trkpt>
      <trkpt lat="49.53247" lon="1.87318">
        <ele>113</ele>
        <time>2018-04-21T13:16:53Z</time>
      </trkpt>
      <trkpt lat="49.53266" lon="1.87286">
        <ele>114</ele>
        <time>2018-04-21T13:17:53Z</time>
      </trkpt>
      <trkpt lat="49.53295" lon="1.87221">
        <ele>115</ele>
        <time>2018-04-21T13:18:53Z</time>
      </trkpt>
      <trkpt lat="49.53301" lon="1.87179">
        <ele>117</ele>
        <time>2018-04-21T13:19:53Z</time>
      </trkpt>
      <trkpt lat="49.53325" lon="1.87134">
        <ele>119</ele>
        <time>2018-04-21T13:20:53Z</time>
      </trkpt>
      <trkpt lat="49.5335" lon="1.87089">
        <ele>121</ele>
        <time>2018-04-21T13:21:53Z</time>
      </trkpt>
      <trkpt lat="49.53365" lon="1.8708">
        <ele>120</ele>
        <time>2018-04-21T13:22:53Z</time>
      </trkpt>
      <trkpt lat="49.53389" lon="1.87049">
        <ele>118</ele>
        <time>2018-04-21T13:23:53Z</time>
      </trkpt>
      <trkpt lat="49.53409" lon="1.87032">
        <ele>116</ele>
        <time>2018-04-21T13:24:53Z</time>
      </trkpt>
      <trkpt lat="49.53455" lon="1.87071">
        <ele>112</ele>
        <time>2018-04-21T13:25:53Z</time>
      </trkpt>
      <trkpt lat="49.53482" lon="1.87068">
        <ele>110</ele>
        <time>2018-04-21T13:26:53Z</time>
      </trkpt>
      <trkpt lat="49.53513" lon="1.87032">
        <ele>109</ele>
        <time>2018-04-21T13:27:53Z</time>
      </trkpt>
      <trkpt lat="49.53534" lon="1.86958">
        <ele>109</ele>
        <time>2018-04-21T13:28:53Z</time>
      </trkpt>
      <trkpt lat="49.5355" lon="1.86909">
        <ele>110</ele>
        <time>2018-04-21T13:29:53Z</time>
      </trkpt>
      <trkpt lat="49.53573" lon="1.86864">
        <ele>110</ele>
        <time>2018-04-21T13:30:53Z</time>
      </trkpt>
      <trkpt lat="49.53637" lon="1.86796">
        <ele>109</ele>
        <time>2018-04-21T13:31:53Z</time>
      </trkpt>
      <trkpt lat="49.53667" lon="1.86767">
        <ele>108</ele>
        <time>2018-04-21T13:32:53Z</time>
      </trkpt>
      <trkpt lat="49.53688" lon="1.86746">
        <ele>109</ele>
        <time>2018-04-21T13:33:53Z</time>
      </trkpt>
      <trkpt lat="49.53655" lon="1.86705">
        <ele>112</ele>
        <time>2018-04-21T13:34:53Z</time>
      </trkpt>
      <trkpt lat="49.53648" lon="1.86669">
        <ele>114</ele>
        <time>2018-04-21T13:35:53Z</time>
      </trkpt>
      <trkpt lat="49.53638" lon="1.86602">
        <ele>118</ele>
        <time>2018-04-21T13:36:53Z</time>
      </trkpt>
      <trkpt lat="49.53605" lon="1.86502">
        <ele>126</ele>
        <time>2018-04-21T13:37:53Z</time>
      </trkpt>
      <trkpt lat="49.53579" lon="1.86431">
        <ele>132</ele>
        <time>2018-04-21T13:38:53Z</time>
      </trkpt>
      <trkpt lat="49.53525" lon="1.86275">
        <ele>140</ele>
        <time>2018-04-21T13:39:53Z</time>
      </trkpt>
      <trkpt lat="49.53531" lon="1.86069">
        <ele>149</ele>
        <time>2018-04-21T13:40:53Z</time>
      </trkpt>
      <trkpt lat="49.53526" lon="1.85866">
        <ele>153</ele>
        <time>2018-04-21T13:41:53Z</time>
      </trkpt>
      <trkpt lat="49.53529" lon="1.85809">
        <ele>154</ele>
        <time>2018-04-21T13:42:53Z</time>
      </trkpt>
      <trkpt lat="49.53571" lon="1.85702">
        <ele>152</ele>
        <time>2018-04-21T13:43:53Z</time>
      </trkpt>
      <trkpt lat="49.53592" lon="1.85648">
        <ele>150</ele>
        <time>2018-04-21T13:44:53Z</time>
      </trkpt>
      <trkpt lat="49.53589" lon="1.85597">
        <ele>149</ele>
        <time>2018-04-21T13:45:53Z</time>
      </trkpt>
      <trkpt lat="49.53561" lon="1.85554">
        <ele>151</ele>
        <time>2018-04-21T13:46:53Z</time>
      </trkpt>
      <trkpt lat="49.53539" lon="1.85506">
        <ele>152</ele>
        <time>2018-04-21T13:47:53Z</time>
      </trkpt>
      <trkpt lat="49.53533" lon="1.8546">
        <ele>153</ele>
        <time>2018-04-21T13:48:53Z</time>
      </trkpt>
      <trkpt lat="49.53533" lon="1.85409">
        <ele>154</ele>
        <time>2018-04-21T13:49:53Z</time>
      </trkpt>
      <trkpt lat="49.53551" lon="1.85284">
        <ele>156</ele>
        <time>2018-04-21T13:50:53Z</time>
      </trkpt>
      <trkpt lat="49.53564" lon="1.8519">
        <ele>157</ele>
        <time>2018-04-21T13:51:53Z</time>
      </trkpt>
      <trkpt lat="49.53559" lon="1.85156">
        <ele>158</ele>
        <time>2018-04-21T13:52:53Z</time>
      </trkpt>
      <trkpt lat="49.53533" lon="1.85087">
        <ele>162</ele>
        <time>2018-04-21T13:53:53Z</time>
      </trkpt>
      <trkpt lat="49.53514" lon="1.85067">
        <ele>165</ele>
        <time>2018-04-21T13:54:53Z</time>
      </trkpt>
      <trkpt lat="49.53476" lon="1.85048">
        <ele>169</ele>
        <time>2018-04-21T13:55:53Z</time>
      </trkpt>
      <trkpt lat="49.53441" lon="1.85024">
        <ele>172</ele>
        <time>2018-04-21T13:56:53Z</time>
      </trkpt>
      <trkpt lat="49.53434" lon="1.84985">
        <ele>173</ele>
        <time>2018-04-21T13:57:53Z</time>
      </trkpt>
      <trkpt lat="49.53457" lon="1.84907">
        <ele>174</ele>
        <time>2018-04-21T13:58:53Z</time>
      </trkpt>
      <trkpt lat="49.53465" lon="1.84837">
        <ele>172</ele>
        <time>2018-04-21T13:59:53Z</time>
      </trkpt>
      <trkpt lat="49.5345" lon="1.84784">
        <ele>167</ele>
        <time>2018-04-21T14:00:53Z</time>
      </trkpt>
      <trkpt lat="49.5341" lon="1.84773">
        <ele>166</ele>
        <time>2018-04-21T14:01:53Z</time>
      </trkpt>
      <trkpt lat="49.53354" lon="1.84782">
        <ele>167</ele>
        <time>2018-04-21T14:02:53Z</time>
      </trkpt>
      <trkpt lat="49.53317" lon="1.84788">
        <ele>167</ele>
        <time>2018-04-21T14:03:53Z</time>
      </trkpt>
      <trkpt lat="49.53273" lon="1.84805">
        <ele>166</ele>
        <time>2018-04-21T14:04:53Z</time>
      </trkpt>
      <trkpt lat="49.53232" lon="1.84839">
        <ele>169</ele>
        <time>2018-04-21T14:05:53Z</time>
      </trkpt>
      <trkpt lat="49.53203" lon="1.84882">
        <ele>170</ele>
        <time>2018-04-21T14:06:53Z</time>
      </trkpt>
      <trkpt lat="49.53167" lon="1.84945">
        <ele>171</ele>
        <time>2018-04-21T14:07:53Z</time>
      </trkpt>
      <trkpt lat="49.5315" lon="1.84963">
        <ele>171</ele>
        <time>2018-04-21T14:08:53Z</time>
      </trkpt>
      <trkpt lat="49.53113" lon="1.85015">
        <ele>169</ele>
        <time>2018-04-21T14:09:53Z</time>
      </trkpt>
      <trkpt lat="49.53057" lon="1.85125">
        <ele>164</ele>
        <time>2018-04-21T14:10:53Z</time>
      </trkpt>
      <trkpt lat="49.53019" lon="1.85202">
        <ele>160</ele>
        <time>2018-04-21T14:11:53Z</time>
      </trkpt>
      <trkpt lat="49.52972" lon="1.85304">
        <ele>155</ele>
        <time>2018-04-21T14:12:53Z</time>
      </trkpt>
      <trkpt lat="49.52951" lon="1.85345">
        <ele>153</ele>
        <time>2018-04-21T14:13:53Z</time>
      </trkpt>
      <trkpt lat="49.52944" lon="1.85448">
        <ele>150</ele>
        <time>2018-04-21T14:14:53Z</time>
      </trkpt>
      <trkpt lat="49.5293" lon="1.85409">
        <ele>150</ele>
        <time>2018-04-21T14:15:53Z</time>
      </trkpt>
      <trkpt lat="49.52888" lon="1.85322">
        <ele>146</ele>
        <time>2018-04-21T14:16:53Z</time>
      </trkpt>
      <trkpt lat="49.52841" lon="1.85268">
        <ele>141</ele>
        <time>2018-04-21T14:17:53Z</time>
      </trkpt>
      <trkpt lat="49.52794" lon="1.85232">
        <ele>138</ele>
        <time>2018-04-21T14:18:53Z</time>
      </trkpt>
      <trkpt lat="49.52725" lon="1.85172">
        <ele>137</ele>
        <time>2018-04-21T14:19:53Z</time>
      </trkpt>
      <trkpt lat="49.52693" lon="1.85144">
        <ele>137</ele>
        <time>2018-04-21T14:20:53Z</time>
      </trkpt>
      <trkpt lat="49.52656" lon="1.85098">
        <ele>136</ele>
        <time>2018-04-21T14:21:53Z</time>
      </trkpt>
      <trkpt lat="49.52614" lon="1.85053">
        <ele>137</ele>
        <time>2018-04-21T14:22:53Z</time>
      </trkpt>
      <trkpt lat="49.52585" lon="1.85022">
        <ele>137</ele>
        <time>2018-04-21T14:23:53Z</time>
      </trkpt>
      <trkpt lat="49.52535" lon="1.84998">
        <ele>138</ele>
        <time>2018-04-21T14:24:53Z</time>
      </trkpt>
      <trkpt lat="49.52512" lon="1.84968">
        <ele>139</ele>
        <time>2018-04-21T14:25:53Z</time>
      </trkpt>
      <trkpt lat="49.52488" lon="1.84926">
        <ele>140</ele>
        <time>2018-04-21T14:26:53Z</time>
      </trkpt>
      <trkpt lat="49.52533" lon="1.84839">
        <ele>142</ele>
        <time>2018-04-21T14:27:53Z</time>
      </trkpt>
      <trkpt lat="49.52547" lon="1.84808">
        <ele>144</ele>
        <time>2018-04-21T14:28:53Z</time>
      </trkpt>
      <trkpt lat="49.52565" lon="1.84774">
        <ele>146</ele>
        <time>2018-04-21T14:29:53Z</time>
      </trkpt>
      <trkpt lat="49.5257" lon="1.84727">
        <ele>148</ele>
        <time>2018-04-21T14:30:53Z</time>
      </trkpt>
      <trkpt lat="49.52617" lon="1.84653">
        <ele>151</ele>
        <time>2018-04-21T14:31:53Z</time>
      </trkpt>
      <trkpt lat="49.52672" lon="1.84518">
        <ele>158</ele>
        <time>2018-04-21T14:32:53Z</time>
      </trkpt>
      <trkpt lat="49.52607" lon="1.84371">
        <ele>158</ele>
        <time>2018-04-21T14:33:53Z</time>
      </trkpt>
      <trkpt lat="49.52551" lon="1.84225">
        <ele>161</ele>
        <time>2018-04-21T14:34:53Z</time>
      </trkpt>
      <trkpt lat="49.52466" lon="1.84143">
        <ele>159</ele>
        <time>2018-04-21T14:35:53Z</time>
      </trkpt>
      <trkpt lat="49.52404" lon="1.84082">
        <ele>157</ele>
        <time>2018-04-21T14:36:53Z</time>
      </trkpt>
      <trkpt lat="49.52349" lon="1.84046">
        <ele>155</ele>
        <time>2018-04-21T14:37:53Z</time>
      </trkpt>
      <trkpt lat="49.52261" lon="1.83999">
        <ele>151</ele>
        <time>2018-04-21T14:38:53Z</time>
      </trkpt>
      <trkpt lat="49.52192" lon="1.83944">
        <ele>148</ele>
        <time>2018-04-21T14:39:53Z</time>
      </trkpt>
      <trkpt lat="49.52064" lon="1.83975">
        <ele>143</ele>
        <time>2018-04-21T14:40:53Z</time>
      </trkpt>
      <trkpt lat="49.52032" lon="1.83983">
        <ele>144</ele>
        <time>2018-04-21T14:41:53Z</time>
      </trkpt>
      <trkpt lat="49.51994" lon="1.8398">
        <ele>146</ele>
        <time>2018-04-21T14:42:53Z</time>
      </trkpt>
      <trkpt lat="49.51928" lon="1.83966">
        <ele>150</ele>
        <time>2018-04-21T14:43:53Z</time>
      </trkpt>
      <trkpt lat="49.51793" lon="1.83915">
        <ele>157</ele>
        <time>2018-04-21T14:44:53Z</time>
      </trkpt>
      <trkpt lat="49.51738" lon="1.83882">
        <ele>160</ele>
        <time>2018-04-21T14:45:53Z</time>
      </trkpt>
      <trkpt lat="49.51678" lon="1.83862">
        <ele>163</ele>
        <time>2018-04-21T14:46:53Z</time>
      </trkpt>
      <trkpt lat="49.51566" lon="1.83832">
        <ele>170</ele>
        <time>2018-04-21T14:47:53Z</time>
      </trkpt>
      <trkpt lat="49.51449" lon="1.83799">
        <ele>177</ele>
        <time>2018-04-21T14:48:53Z</time>
      </trkpt>
      <trkpt lat="49.51361" lon="1.8377">
        <ele>181</ele>
        <time>2018-04-21T14:49:53Z</time>
      </trkpt>
      <trkpt lat="49.51316" lon="1.83738">
        <ele>182</ele>
        <time>2018-04-21T14:50:53Z</time>
      </trkpt>
      <trkpt lat="49.51261" lon="1.8368">
        <ele>187</ele>
        <time>2018-04-21T14:51:53Z</time>
      </trkpt>
      <trkpt lat="49.51197" lon="1.83593">
        <ele>196</ele>
        <time>2018-04-21T14:52:53Z</time>
      </trkpt>
      <trkpt lat="49.51128" lon="1.83511">
        <ele>204</ele>
        <time>2018-04-21T14:53:53Z</time>
      </trkpt>
      <trkpt lat="49.51026" lon="1.83405">
        <ele>209</ele>
        <time>2018-04-21T14:54:53Z</time>
      </trkpt>
      <trkpt lat="49.50982" lon="1.83514">
        <ele>209</ele>
        <time>2018-04-21T14:55:53Z</time>
      </trkpt>
      <trkpt lat="49.50925" lon="1.8362">
        <ele>210</ele>
        <time>2018-04-21T14:56:53Z</time>
      </trkpt>
      <trkpt lat="49.50901" lon="1.83682">
        <ele>211</ele>
        <time>2018-04-21T14:57:53Z</time>
      </trkpt>
      <trkpt lat="49.50894" lon="1.83722">
        <ele>211</ele>
        <time>2018-04-21T14:58:53Z</time>
      </trkpt>
      <trkpt lat="49.50881" lon="1.83837">
        <ele>212</ele>
        <time>2018-04-21T14:59:53Z</time>
      </trkpt>
      <trkpt lat="49.5085" lon="1.83915">
        <ele>213</ele>
        <time>2018-04-21T15:00:53Z</time>
      </trkpt>
      <trkpt lat="49.50807" lon="1.83987">
        <ele>215</ele>
        <time>2018-04-21T15:01:53Z</time>
      </trkpt>
      <trkpt lat="49.50716" lon="1.84099">
        <ele>214</ele>
        <time>2018-04-21T15:02:53Z</time>
      </trkpt>
      <trkpt lat="49.50647" lon="1.84232">
        <ele>212</ele>
        <time>2018-04-21T15:03:53Z</time>
      </trkpt>
      <trkpt lat="49.50556" lon="1.84234">
        <ele>211</ele>
        <time>2018-04-21T15:04:53Z</time>
      </trkpt>
      <trkpt lat="49.50457" lon="1.84261">
        <ele>206</ele>
        <time>2018-04-21T15:05:53Z</time>
      </trkpt>
      <trkpt lat="49.50358" lon="1.84277">
        <ele>201</ele>
        <time>2018-04-21T15:06:53Z</time>
      </trkpt>
      <trkpt lat="49.50294" lon="1.84288">
        <ele>198</ele>
        <time>2018-04-21T15:07:53Z</time>
      </trkpt>
      <trkpt lat="49.50232" lon="1.84286">
        <ele>195</ele>
        <time>2018-04-21T15:08:53Z</time>
      </trkpt>
      <trkpt lat="49.50143" lon="1.84262">
        <ele>190</ele>
        <time>2018-04-21T15:09:53Z</time>
      </trkpt>
      <trkpt lat="49.50087" lon="1.84262">
        <ele>187</ele>
        <time>2018-04-21T15:10:53Z</time>
      </trkpt>
      <trkpt lat="49.49943" lon="1.84275">
        <ele>180</ele>
        <time>2018-04-21T15:11:53Z</time>
      </trkpt>
      <trkpt lat="49.49826" lon="1.84306">
        <ele>174</ele>
        <time>2018-04-21T15:12:53Z</time>
      </trkpt>
      <trkpt lat="49.49759" lon="1.84322">
        <ele>170</ele>
        <time>2018-04-21T15:13:53Z</time>
      </trkpt>
      <trkpt lat="49.49691" lon="1.84321">
        <ele>167</ele>
        <time>2018-04-21T15:14:53Z</time>
      </trkpt>
      <trkpt lat="49.49648" lon="1.84332">
        <ele>166</ele>
        <time>2018-04-21T15:15:53Z</time>
      </trkpt>
      <trkpt lat="49.49602" lon="1.84349">
        <ele>165</ele>
        <time>2018-04-21T15:16:53Z</time>
      </trkpt>
      <trkpt lat="49.49557" lon="1.84359">
        <ele>165</ele>
        <time>2018-04-21T15:17:53Z</time>
      </trkpt>
      <trkpt lat="49.49502" lon="1.8437">
        <ele>163</ele>
        <time>2018-04-21T15:18:53Z</time>
      </trkpt>
      <trkpt lat="49.49448" lon="1.84372">
        <ele>162</ele>
        <time>2018-04-21T15:19:53Z</time>
      </trkpt>
      <trkpt lat="49.49363" lon="1.84346">
        <ele>158</ele>
        <time>2018-04-21T15:20:53Z</time>
      </trkpt>
      <trkpt lat="49.49335" lon="1.84241">
        <ele>157</ele>
        <time>2018-04-21T15:21:53Z</time>
      </trkpt>
      <trkpt lat="49.49293" lon="1.84178">
        <ele>161</ele>
        <time>2018-04-21T15:22:53Z</time>
      </trkpt>
      <trkpt lat="49.49256" lon="1.84164">
        <ele>163</ele>
        <time>2018-04-21T15:23:53Z</time>
      </trkpt>
      <trkpt lat="49.4922" lon="1.84174">
        <ele>164</ele>
        <time>2018-04-21T15:24:53Z</time>
      </trkpt>
      <trkpt lat="49.49172" lon="1.84171">
        <ele>167</ele>
        <time>2018-04-21T15:25:53Z</time>
      </trkpt>
      <trkpt lat="49.49104" lon="1.84138">
        <ele>171</ele>
        <time>2018-04-21T15:26:53Z</time>
      </trkpt>
      <trkpt lat="49.49014" lon="1.84104">
        <ele>175</ele>
        <time>2018-04-21T15:27:53Z</time>
      </trkpt>
      <trkpt lat="49.48917" lon="1.84054">
        <ele>175</ele>
        <time>2018-04-21T15:28:53Z</time>
      </trkpt>
      <trkpt lat="49.48874" lon="1.83912">
        <ele>177</ele>
        <time>2018-04-21T15:29:53Z</time>
      </trkpt>
      <trkpt lat="49.48842" lon="1.83789">
        <ele>179</ele>
        <time>2018-04-21T15:30:53Z</time>
      </trkpt>
      <trkpt lat="49.48809" lon="1.83673">
        <ele>181</ele>
        <time>2018-04-21T15:31:53Z</time>
      </trkpt>
      <trkpt lat="49.48798" lon="1.83585">
        <ele>183</ele>
        <time>2018-04-21T15:32:53Z</time>
      </trkpt>
      <trkpt lat="49.48756" lon="1.83542">
        <ele>183</ele>
        <time>2018-04-21T15:33:53Z</time>
      </trkpt>
      <trkpt lat="49.48734" lon="1.83548">
        <ele>183</ele>
        <time>2018-04-21T15:34:53Z</time>
      </trkpt>
      <trkpt lat="49.48716" lon="1.83594">
        <ele>181</ele>
        <time>2018-04-21T15:35:53Z</time>
      </trkpt>
      <trkpt lat="49.48699" lon="1.83624">
        <ele>180</ele>
        <time>2018-04-21T15:36:53Z</time>
      </trkpt>
      <trkpt lat="49.48692" lon="1.83648">
        <ele>179</ele>
        <time>2018-04-21T15:37:53Z</time>
      </trkpt>
      <trkpt lat="49.48665" lon="1.83656">
        <ele>178</ele>
        <time>2018-04-21T15:38:53Z</time>
      </trkpt>
      <trkpt lat="49.48633" lon="1.83649">
        <ele>179</ele>
        <time>2018-04-21T15:39:53Z</time>
      </trkpt>
      <trkpt lat="49.48619" lon="1.83573">
        <ele>181</ele>
        <time>2018-04-21T15:40:53Z</time>
      </trkpt>
    </trkseg>
  </trk>
</gpx>